Time;durP1;ratioP1;P1;durP2;ratioP2;P2;SDS_P1;SDS_P2;PMS_P1;PMS_P2;Temp;Humidity;BMP_temperature;BMP_pressure;BME280_temperature;BME280_humidity;BME280_pressure;Samples;Min_cycle;Max_cycle;Signal;HPM_P1;HPM_P2
2021/04/04 00:00:28;;;;;;;;;;;17.80;50.70;;;;;;5025054;28;19921;-71
2021/04/04 00:02:54;;;;;;;;;;;17.90;50.80;;;;;;5023341;28;19924;-70
2021/04/04 00:05:19;;;;;;;;;;;17.80;50.70;;;;;;5022862;28;19917;-71
2021/04/04 00:07:45;;;;;;;;;;;17.80;50.80;;;;;;5022763;28;19921;-71
2021/04/04 00:10:10;;;;;;;;;;;17.80;51.10;;;;;;5018941;28;20382;-68
2021/04/04 00:12:36;;;;;;;;;;;17.80;50.80;;;;;;5022792;28;19937;-70
2021/04/04 00:15:02;;;;;;;;;;;17.80;50.80;;;;;;5021764;28;19921;-70
2021/04/04 00:17:27;;;;;;;;;;;17.80;50.80;;;;;;5019784;28;20533;-70
2021/04/04 00:19:53;;;;;;;;;;;17.70;50.80;;;;;;5023914;28;19917;-70
2021/04/04 00:22:18;;;;;;;;;;;17.70;50.80;;;;;;5023441;28;20337;-70
2021/04/04 00:24:44;;;;;;;;;;;17.70;50.80;;;;;;5023728;28;19918;-70
2021/04/04 00:27:09;;;;;;;;;;;17.70;50.90;;;;;;5023453;28;19935;-70
2021/04/04 00:29:35;;;;;;;;;;;17.70;50.90;;;;;;5023545;28;19933;-70
2021/04/04 00:32:00;;;;;;;;;;;17.70;51.00;;;;;;5023180;28;20294;-70
2021/04/04 00:34:26;;;;;;;;;;;17.70;51.00;;;;;;5022721;28;19921;-69
2021/04/04 00:36:51;;;;;;;;;;;17.70;50.90;;;;;;5023605;28;19924;-70
2021/04/04 00:39:17;;;;;;;;;;;17.70;50.90;;;;;;5025108;28;19932;-70
2021/04/04 00:41:42;;;;;;;;;;;17.70;50.80;;;;;;5026837;28;19921;-70
2021/04/04 00:44:08;;;;;;;;;;;17.70;50.70;;;;;;5024627;28;19924;-70
2021/04/04 00:46:33;;;;;;;;;;;17.70;50.70;;;;;;5022041;28;19917;-71
2021/04/04 00:48:59;;;;;;;;;;;17.70;50.70;;;;;;5023516;28;20306;-69
2021/04/04 00:51:24;;;;;;;;;;;17.70;50.70;;;;;;5023682;28;19925;-69
2021/04/04 00:53:50;;;;;;;;;;;17.70;50.60;;;;;;5022141;28;19921;-70
2021/04/04 00:56:15;;;;;;;;;;;17.80;50.50;;;;;;5023441;28;20361;-69
2021/04/04 00:58:41;;;;;;;;;;;17.80;50.30;;;;;;5024008;28;19940;-70
2021/04/04 01:01:06;;;;;;;;;;;17.80;50.30;;;;;;5022457;28;19917;-70
2021/04/04 01:03:32;;;;;;;;;;;17.80;50.20;;;;;;5003080;28;20030;-70
2021/04/04 01:06:03;;;;;;;;;;;17.90;50.30;;;;;;5022526;28;19976;-69
2021/04/04 01:08:29;;;;;;;;;;;17.80;50.20;;;;;;5006051;28;20325;-70
2021/04/04 01:10:54;;;;;;;;;;;17.80;50.10;;;;;;5022133;28;19917;-70
2021/04/04 01:13:29;;;;;;;;;;;17.80;50.10;;;;;;5021623;28;19921;-70
2021/04/04 01:15:55;;;;;;;;;;;17.80;50.10;;;;;;5024189;28;19917;-70
2021/04/04 01:18:30;;;;;;;;;;;17.80;50.10;;;;;;5026622;28;19932;-70
2021/04/04 01:20:57;;;;;;;;;;;17.80;50.00;;;;;;5026986;28;19925;-70
2021/04/04 01:23:25;;;;;;;;;;;17.80;50.00;;;;;;5026551;28;19970;-71
2021/04/04 01:25:53;;;;;;;;;;;17.80;50.10;;;;;;5025602;28;19917;-71
2021/04/04 01:28:20;;;;;;;;;;;17.70;50.10;;;;;;5024755;28;19929;-70
2021/04/04 01:30:46;;;;;;;;;;;17.70;50.30;;;;;;5026691;28;19929;-70
2021/04/04 01:33:12;;;;;;;;;;;17.70;50.30;;;;;;5025084;28;19921;-70
2021/04/04 01:35:37;;;;;;;;;;;17.70;50.30;;;;;;5026872;28;20008;-68
2021/04/04 01:38:10;;;;;;;;;;;17.70;50.30;;;;;;5025559;28;20376;-69
2021/04/04 01:40:36;;;;;;;;;;;17.70;50.30;;;;;;5026975;28;20521;-70
2021/04/04 01:43:02;;;;;;;;;;;17.70;50.20;;;;;;5025144;28;19917;-70
2021/04/04 01:45:27;;;;;;;;;;;17.70;50.20;;;;;;5027139;28;19917;-71
2021/04/04 01:47:53;;;;;;;;;;;17.70;50.10;;;;;;5031415;28;19918;-70
2021/04/04 01:50:18;;;;;;;;;;;17.70;50.10;;;;;;5030474;28;19917;-70
2021/04/04 01:52:44;;;;;;;;;;;17.70;50.00;;;;;;5027790;28;19951;-70
2021/04/04 01:55:10;;;;;;;;;;;17.70;50.00;;;;;;5025908;28;19925;-70
2021/04/04 01:57:35;;;;;;;;;;;17.70;50.00;;;;;;5025018;28;20445;-70
2021/04/04 02:00:01;;;;;;;;;;;17.70;50.00;;;;;;5009417;28;20616;-70
2021/04/04 02:02:27;;;;;;;;;;;17.70;50.00;;;;;;5018446;28;20667;-70
2021/04/04 02:04:52;;;;;;;;;;;17.70;49.90;;;;;;5026969;28;19917;-70
2021/04/04 02:07:18;;;;;;;;;;;17.70;49.80;;;;;;5025542;28;19972;-70
2021/04/04 02:09:44;;;;;;;;;;;17.70;49.70;;;;;;5025909;28;19948;-70
2021/04/04 02:12:09;;;;;;;;;;;17.80;49.70;;;;;;5024222;28;19925;-70
2021/04/04 02:14:35;;;;;;;;;;;17.80;49.70;;;;;;5022207;28;19923;-70
2021/04/04 02:17:00;;;;;;;;;;;17.80;49.60;;;;;;5024568;28;20562;-70
2021/04/04 02:19:26;;;;;;;;;;;17.80;49.60;;;;;;5024437;28;19979;-70
2021/04/04 02:21:52;;;;;;;;;;;17.80;49.50;;;;;;5023908;28;20456;-70
2021/04/04 02:24:18;;;;;;;;;;;17.80;49.40;;;;;;5024835;28;19932;-70
2021/04/04 02:26:44;;;;;;;;;;;17.80;49.40;;;;;;5024514;28;19925;-70
2021/04/04 02:29:09;;;;;;;;;;;17.80;49.30;;;;;;5024313;28;19975;-70
2021/04/04 02:31:36;;;;;;;;;;;17.80;49.30;;;;;;5024114;28;19925;-71
2021/04/04 02:34:03;;;;;;;;;;;17.80;49.30;;;;;;5024438;28;20007;-72
2021/04/04 02:36:28;;;;;;;;;;;17.80;49.40;;;;;;5025736;28;19917;-70
2021/04/04 02:38:57;;;;;;;;;;;17.80;49.30;;;;;;5025843;28;19983;-70
2021/04/04 02:41:22;;;;;;;;;;;17.80;49.30;;;;;;5025247;28;19921;-71
2021/04/04 02:43:49;;;;;;;;;;;17.80;49.20;;;;;;5023336;28;20701;-70
2021/04/04 02:46:15;;;;;;;;;;;17.80;49.20;;;;;;5025277;28;19949;-70
2021/04/04 02:48:41;;;;;;;;;;;17.80;49.20;;;;;;5024874;28;19980;-70
2021/04/04 02:51:07;;;;;;;;;;;17.80;49.20;;;;;;5024723;28;19925;-70
2021/04/04 02:53:33;;;;;;;;;;;17.80;49.20;;;;;;5025080;28;19917;-70
2021/04/04 02:55:59;;;;;;;;;;;17.70;49.10;;;;;;5021200;28;20012;-70
2021/04/04 02:58:25;;;;;;;;;;;17.70;49.20;;;;;;5022462;28;20229;-70
2021/04/04 03:00:50;;;;;;;;;;;17.70;49.20;;;;;;5024805;28;19921;-70
2021/04/04 03:03:16;;;;;;;;;;;17.70;49.20;;;;;;5023252;28;19937;-71
2021/04/04 03:05:41;;;;;;;;;;;17.70;49.30;;;;;;5023824;28;19925;-71
2021/04/04 03:08:07;;;;;;;;;;;17.70;49.30;;;;;;5023541;28;19949;-71
2021/04/04 03:10:33;;;;;;;;;;;17.70;49.30;;;;;;5023873;28;20394;-71
2021/04/04 03:12:58;;;;;;;;;;;17.60;49.20;;;;;;5024166;28;19928;-71
2021/04/04 03:15:24;;;;;;;;;;;17.70;49.30;;;;;;5024160;28;20023;-71
2021/04/04 03:17:49;;;;;;;;;;;17.60;49.20;;;;;;5023942;28;20384;-70
2021/04/04 03:20:15;;;;;;;;;;;17.60;49.20;;;;;;5023427;28;19924;-70
2021/04/04 03:22:41;;;;;;;;;;;17.60;49.20;;;;;;5024954;28;19979;-71
2021/04/04 03:25:06;;;;;;;;;;;17.60;49.20;;;;;;5024230;28;19917;-70
2021/04/04 03:27:32;;;;;;;;;;;17.60;49.10;;;;;;5024735;28;19979;-71
2021/04/04 03:29:58;;;;;;;;;;;17.70;49.10;;;;;;5026444;28;19917;-70
2021/04/04 03:32:23;;;;;;;;;;;17.60;49.00;;;;;;5023617;28;19925;-71
2021/04/04 03:34:49;;;;;;;;;;;17.70;49.00;;;;;;5023737;28;20047;-71
2021/04/04 03:37:14;;;;;;;;;;;17.70;48.90;;;;;;5023256;28;19917;-70
2021/04/04 03:39:40;;;;;;;;;;;17.70;48.80;;;;;;5023696;28;20374;-70
2021/04/04 03:42:05;;;;;;;;;;;17.70;48.80;;;;;;5027500;28;19971;-71
2021/04/04 03:44:32;;;;;;;;;;;17.70;48.80;;;;;;5033719;28;19948;-71
2021/04/04 03:46:57;;;;;;;;;;;17.70;48.80;;;;;;5006889;28;19929;-71
2021/04/04 03:49:23;;;;;;;;;;;17.70;48.70;;;;;;5025806;28;19940;-72
2021/04/04 03:51:52;;;;;;;;;;;17.70;48.70;;;;;;5024178;28;19932;-71
2021/04/04 03:54:17;;;;;;;;;;;17.70;48.60;;;;;;5024647;28;19987;-71
2021/04/04 03:56:44;;;;;;;;;;;17.70;48.70;;;;;;5024071;28;20366;-71
2021/04/04 03:59:10;;;;;;;;;;;17.70;48.60;;;;;;5024477;28;19920;-71
2021/04/04 04:01:37;;;;;;;;;;;17.70;48.60;;;;;;5022766;28;19921;-70
2021/04/04 04:04:03;;;;;;;;;;;17.70;48.60;;;;;;5024676;28;19924;-71
2021/04/04 04:06:34;;;;;;;;;;;17.70;48.70;;;;;;5023296;28;20004;-71
2021/04/04 04:09:02;;;;;;;;;;;17.70;48.70;;;;;;5028252;28;19924;-70
2021/04/04 04:11:27;;;;;;;;;;;17.70;48.70;;;;;;5025922;28;19928;-71
2021/04/04 04:13:53;;;;;;;;;;;17.60;49.20;;;;;;5025093;28;19922;-71
2021/04/04 04:16:18;;;;;;;;;;;17.60;48.60;;;;;;5027693;28;19979;-71
2021/04/04 04:18:44;;;;;;;;;;;17.60;48.70;;;;;;5027019;28;19940;-71
2021/04/04 04:21:10;;;;;;;;;;;17.60;48.80;;;;;;5027247;28;19923;-71
2021/04/04 04:23:36;;;;;;;;;;;17.60;48.80;;;;;;5027196;28;19922;-71
2021/04/04 04:26:01;;;;;;;;;;;17.50;48.80;;;;;;5025440;28;19940;-71
2021/04/04 04:28:27;;;;;;;;;;;17.60;48.80;;;;;;5025367;28;19921;-71
2021/04/04 04:30:52;;;;;;;;;;;17.50;48.80;;;;;;5025617;28;20264;-71
2021/04/04 04:33:19;;;;;;;;;;;17.50;48.80;;;;;;5025405;28;19917;-71
2021/04/04 04:35:44;;;;;;;;;;;17.60;48.70;;;;;;5027608;28;19922;-71
2021/04/04 04:38:10;;;;;;;;;;;17.60;48.80;;;;;;5027047;28;19940;-71
2021/04/04 04:40:35;;;;;;;;;;;17.50;48.60;;;;;;5026711;28;19990;-71
2021/04/04 04:43:01;;;;;;;;;;;17.50;48.60;;;;;;5022703;28;20660;-71
2021/04/04 04:45:31;;;;;;;;;;;17.50;48.60;;;;;;5024709;28;20035;-71
2021/04/04 04:47:57;;;;;;;;;;;17.50;48.50;;;;;;5024022;28;19917;-71
2021/04/04 04:50:22;;;;;;;;;;;17.60;48.50;;;;;;5027062;28;19921;-71
2021/04/04 04:52:48;;;;;;;;;;;17.60;48.50;;;;;;5028296;28;19932;-72
2021/04/04 04:55:13;;;;;;;;;;;17.50;48.40;;;;;;5030270;28;19964;-71
2021/04/04 04:57:39;;;;;;;;;;;17.50;48.40;;;;;;5028624;28;19921;-72
2021/04/04 05:00:08;;;;;;;;;;;17.50;48.40;;;;;;5031798;28;19917;-72
2021/04/04 05:02:33;;;;;;;;;;;17.50;48.40;;;;;;5030515;28;20366;-72
2021/04/04 05:04:59;;;;;;;;;;;17.50;49.00;;;;;;5030367;28;19979;-73
2021/04/04 05:07:25;;;;;;;;;;;17.60;48.40;;;;;;5030808;28;19917;-71
2021/04/04 05:09:50;;;;;;;;;;;17.60;48.40;;;;;;5029111;28;19932;-70
2021/04/04 05:12:20;;;;;;;;;;;17.60;48.40;;;;;;5028991;28;19932;-72
2021/04/04 05:14:46;;;;;;;;;;;17.60;48.30;;;;;;5029466;28;20694;-71
2021/04/04 05:17:12;;;;;;;;;;;17.60;48.20;;;;;;5029811;28;19921;-72
2021/04/04 05:19:37;;;;;;;;;;;17.60;48.10;;;;;;5027785;28;19928;-72
2021/04/04 05:22:02;;;;;;;;;;;17.70;48.20;;;;;;5030727;28;19917;-70
2021/04/04 05:24:28;;;;;;;;;;;17.70;48.20;;;;;;5027907;28;20458;-72
2021/04/04 05:26:53;;;;;;;;;;;17.60;48.10;;;;;;5027965;28;20029;-72
2021/04/04 05:29:19;;;;;;;;;;;17.70;48.20;;;;;;5028022;28;19961;-72
2021/04/04 05:31:48;;;;;;;;;;;17.70;48.20;;;;;;5029504;28;20309;-71
2021/04/04 05:34:14;;;;;;;;;;;17.70;48.10;;;;;;5028564;28;20007;-71
2021/04/04 05:37:01;;;;;;;;;;;17.70;48.10;;;;;;5029929;28;19917;-72
2021/04/04 05:39:27;;;;;;;;;;;17.60;48.10;;;;;;5029237;28;20366;-72
2021/04/04 05:41:53;;;;;;;;;;;17.60;48.10;;;;;;5027754;28;19964;-72
2021/04/04 05:44:20;;;;;;;;;;;17.60;48.20;;;;;;5030175;28;19957;-72
2021/04/04 05:46:50;;;;;;;;;;;17.60;48.20;;;;;;5032700;28;19921;-71
2021/04/04 05:49:18;;;;;;;;;;;17.60;48.20;;;;;;5036197;28;19979;-72
2021/04/04 05:51:51;;;;;;;;;;;17.60;48.20;;;;;;5032504;28;19944;-72
2021/04/04 05:54:35;;;;;;;;;;;17.60;48.10;;;;;;5038774;23;19929;-72
2021/04/04 05:57:24;;;;;;;;;;;17.60;48.10;;;;;;5058284;28;19987;-72
2021/04/04 06:00:04;;;;;;;;;;;17.60;48.20;;;;;;5023468;28;19994;-70
2021/04/04 06:02:48;;;;;;;;;;;17.60;48.20;;;;;;5043018;28;19916;-71
2021/04/04 06:05:25;;;;;;;;;;;17.60;48.40;;;;;;5013687;28;20417;-69
2021/04/04 06:08:09;;;;;;;;;;;17.50;48.60;;;;;;5027312;28;20314;-72
2021/04/04 06:10:53;;;;;;;;;;;17.50;48.80;;;;;;5016298;28;19917;-74
2021/04/04 06:13:38;;;;;;;;;;;17.50;49.10;;;;;;5024812;28;19944;-69
2021/04/04 06:16:24;;;;;;;;;;;17.50;49.20;;;;;;4961650;28;19921;-70
2021/04/04 06:19:11;;;;;;;;;;;17.50;49.30;;;;;;4992601;28;20563;-70
2021/04/04 06:21:55;;;;;;;;;;;17.50;49.50;;;;;;5017646;28;19944;-70
2021/04/04 06:24:39;;;;;;;;;;;17.50;49.80;;;;;;5023512;28;19940;-75
2021/04/04 06:27:21;;;;;;;;;;;17.50;49.80;;;;;;5023800;28;19917;-70
2021/04/04 06:30:01;;;;;;;;;;;17.50;49.90;;;;;;5017512;28;19925;-70
2021/04/04 06:32:43;;;;;;;;;;;17.50;50.00;;;;;;5024222;28;19928;-70
2021/04/04 06:35:18;;;;;;;;;;;17.50;49.90;;;;;;5011604;28;19957;-70
2021/04/04 06:37:49;;;;;;;;;;;17.50;49.80;;;;;;5022382;28;19925;-71
2021/04/04 06:40:14;;;;;;;;;;;17.50;49.80;;;;;;5023385;28;20618;-69
2021/04/04 06:42:40;;;;;;;;;;;17.50;49.70;;;;;;5020616;28;20003;-70
2021/04/04 06:45:24;;;;;;;;;;;17.50;49.60;;;;;;5024055;28;19998;-71
2021/04/04 06:48:05;;;;;;;;;;;17.50;49.50;;;;;;5019000;28;19921;-71
2021/04/04 06:50:31;;;;;;;;;;;17.60;49.40;;;;;;5024638;28;19925;-72
2021/04/04 06:53:07;;;;;;;;;;;17.60;49.30;;;;;;5010443;28;19921;-70
2021/04/04 06:55:52;;;;;;;;;;;17.60;49.10;;;;;;5014164;28;19929;-70
2021/04/04 06:58:36;;;;;;;;;;;17.70;49.10;;;;;;5023917;28;19945;-70
2021/04/04 07:01:17;;;;;;;;;;;17.70;48.90;;;;;;5017602;28;19975;-69
2021/04/04 07:03:58;;;;;;;;;;;17.70;48.80;;;;;;5013962;28;20298;-70
2021/04/04 07:06:26;;;;;;;;;;;17.70;48.70;;;;;;5011306;28;19921;-74
2021/04/04 07:09:11;;;;;;;;;;;17.80;48.80;;;;;;5021826;28;20305;-71
2021/04/04 07:12:02;;;;;;;;;;;17.80;48.60;;;;;;5017975;28;19921;-72
2021/04/04 07:14:47;;;;;;;;;;;17.70;49.30;;;;;;4998485;28;19917;-70
2021/04/04 07:17:14;;;;;;;;;;;17.60;50.00;;;;;;5023529;28;20410;-74
2021/04/04 07:19:45;;;;;;;;;;;17.50;50.30;;;;;;5012031;28;20005;-74
2021/04/04 07:22:14;;;;;;;;;;;17.50;50.60;;;;;;5021121;28;19917;-72
2021/04/04 07:24:42;;;;;;;;;;;17.40;50.80;;;;;;5023890;28;20421;-71
2021/04/04 07:27:09;;;;;;;;;;;17.40;50.80;;;;;;5014283;28;19918;-72
2021/04/04 07:29:51;;;;;;;;;;;17.40;51.00;;;;;;5015416;28;20371;-73
2021/04/04 07:32:40;;;;;;;;;;;17.50;51.00;;;;;;5028945;28;19929;-72
2021/04/04 07:35:06;;;;;;;;;;;17.50;50.90;;;;;;5013345;28;19922;-70
2021/04/04 07:37:34;;;;;;;;;;;17.50;50.70;;;;;;5025015;28;19924;-70
2021/04/04 07:40:02;;;;;;;;;;;17.50;50.60;;;;;;5023754;28;19917;-70
2021/04/04 07:42:31;;;;;;;;;;;17.60;50.60;;;;;;5023846;28;19923;-74
2021/04/04 07:44:56;;;;;;;;;;;17.60;50.70;;;;;;5023182;28;20307;-70
2021/04/04 07:47:26;;;;;;;;;;;17.70;50.60;;;;;;5024366;28;19971;-69
2021/04/04 07:49:58;;;;;;;;;;;17.70;50.30;;;;;;5023154;28;19924;-70
2021/04/04 07:52:25;;;;;;;;;;;17.80;50.10;;;;;;5024369;28;20016;-70
2021/04/04 07:54:50;;;;;;;;;;;17.80;49.70;;;;;;5023811;28;19925;-71
2021/04/04 07:57:21;;;;;;;;;;;17.90;49.40;;;;;;5024306;28;20687;-71
2021/04/04 07:59:47;;;;;;;;;;;17.90;49.10;;;;;;5022972;28;19987;-69
2021/04/04 08:02:17;;;;;;;;;;;17.90;48.70;;;;;;5023533;28;20417;-72
2021/04/04 08:04:44;;;;;;;;;;;17.90;48.50;;;;;;5024285;28;19917;-71
2021/04/04 08:07:20;;;;;;;;;;;17.90;48.10;;;;;;5024220;28;19932;-71
2021/04/04 08:09:46;;;;;;;;;;;17.90;47.90;;;;;;5004512;28;19918;-70
2021/04/04 08:12:19;;;;;;;;;;;17.90;47.60;;;;;;5020792;28;19928;-70
2021/04/04 08:15:04;;;;;;;;;;;17.90;47.30;;;;;;5016249;28;19944;-69
2021/04/04 08:17:29;;;;;;;;;;;17.90;47.10;;;;;;5024194;28;20450;-71
2021/04/04 08:20:19;;;;;;;;;;;17.90;47.20;;;;;;5024173;28;19917;-71
2021/04/04 08:22:45;;;;;;;;;;;17.90;47.20;;;;;;5023604;28;19917;-70
2021/04/04 08:25:15;;;;;;;;;;;17.90;47.00;;;;;;5025995;28;20370;-70
2021/04/04 08:27:43;;;;;;;;;;;17.80;46.90;;;;;;5028049;28;19960;-70
2021/04/04 08:30:17;;;;;;;;;;;17.90;46.80;;;;;;5017772;28;19972;-71
2021/04/04 08:32:50;;;;;;;;;;;17.90;46.50;;;;;;5014449;28;19956;-70
2021/04/04 08:35:18;;;;;;;;;;;17.90;46.20;;;;;;5025778;28;19940;-71
2021/04/04 08:37:47;;;;;;;;;;;17.80;46.10;;;;;;5027646;28;19925;-71
2021/04/04 08:40:13;;;;;;;;;;;17.80;46.00;;;;;;5026681;28;19917;-70
2021/04/04 08:42:39;;;;;;;;;;;17.80;46.00;;;;;;5027562;28;19923;-73
2021/04/04 08:45:09;;;;;;;;;;;17.80;46.20;;;;;;5022511;28;19992;-71
2021/04/04 08:47:35;;;;;;;;;;;17.70;46.20;;;;;;5023163;28;19971;-72
2021/04/04 08:50:07;;;;;;;;;;;17.80;46.40;;;;;;5017458;28;19952;-71
2021/04/04 08:52:52;;;;;;;;;;;17.80;46.40;;;;;;5014188;28;19929;-71
2021/04/04 08:55:19;;;;;;;;;;;17.80;46.40;;;;;;5018918;28;19979;-71
2021/04/04 08:57:46;;;;;;;;;;;17.70;46.40;;;;;;5027383;28;20294;-71
2021/04/04 09:00:12;;;;;;;;;;;17.80;46.50;;;;;;5027170;28;19917;-70
2021/04/04 09:02:44;;;;;;;;;;;17.80;46.50;;;;;;5027891;28;19983;-71
2021/04/04 09:05:10;;;;;;;;;;;17.70;46.50;;;;;;5020012;28;20322;-71
2021/04/04 09:07:35;;;;;;;;;;;17.70;46.60;;;;;;5025826;28;19917;-73
2021/04/04 09:10:01;;;;;;;;;;;17.80;46.70;;;;;;5025014;28;20457;-71
2021/04/04 09:12:31;;;;;;;;;;;17.70;46.80;;;;;;5026950;28;20610;-71
2021/04/04 09:14:56;;;;;;;;;;;17.80;46.90;;;;;;5028113;28;19948;-73
2021/04/04 09:17:22;;;;;;;;;;;17.70;47.00;;;;;;5025494;28;19963;-71
2021/04/04 09:19:48;;;;;;;;;;;17.70;47.20;;;;;;5015842;28;19917;-71
2021/04/04 09:22:17;;;;;;;;;;;17.70;47.60;;;;;;5024567;28;19917;-72
2021/04/04 09:24:43;;;;;;;;;;;17.70;48.00;;;;;;5019297;28;19925;-71
2021/04/04 09:27:12;;;;;;;;;;;17.60;48.50;;;;;;5027961;28;19921;-70
2021/04/04 09:29:38;;;;;;;;;;;17.60;49.00;;;;;;5024335;28;19936;-71
2021/04/04 09:32:04;;;;;;;;;;;17.50;49.00;;;;;;5017539;28;19955;-71
2021/04/04 09:34:29;;;;;;;;;;;17.50;49.50;;;;;;5025769;28;19925;-70
2021/04/04 09:36:55;;;;;;;;;;;17.50;49.90;;;;;;5025702;28;19921;-72
2021/04/04 09:39:25;;;;;;;;;;;17.50;50.50;;;;;;5025030;28;21264;-71
2021/04/04 09:41:51;;;;;;;;;;;17.60;50.80;;;;;;5022480;28;19922;-72
2021/04/04 09:44:17;;;;;;;;;;;17.60;50.80;;;;;;5023930;28;19924;-71
2021/04/04 09:46:52;;;;;;;;;;;17.60;51.10;;;;;;5027082;28;19924;-70
2021/04/04 09:49:36;;;;;;;;;;;17.60;51.10;;;;;;5024202;28;19917;-71
2021/04/04 09:52:18;;;;;;;;;;;17.60;51.40;;;;;;5026280;28;20445;-70
2021/04/04 09:54:57;;;;;;;;;;;17.60;51.30;;;;;;5011453;28;19928;-75
2021/04/04 09:57:22;;;;;;;;;;;17.70;51.60;;;;;;5024324;28;19971;-71
2021/04/04 09:59:48;;;;;;;;;;;17.70;51.80;;;;;;5007555;28;19924;-71
2021/04/04 10:02:13;;;;;;;;;;;17.60;51.80;;;;;;5025436;28;19917;-72
2021/04/04 10:04:44;;;;;;;;;;;17.60;51.70;;;;;;5024980;28;19917;-71
2021/04/04 10:07:10;;;;;;;;;;;17.70;52.10;;;;;;5026184;28;20441;-71
2021/04/04 10:09:38;;;;;;;;;;;17.70;52.40;;;;;;5026599;28;19925;-74
2021/04/04 10:12:04;;;;;;;;;;;17.70;52.50;;;;;;5019033;28;19964;-73
2021/04/04 10:14:29;;;;;;;;;;;17.80;52.40;;;;;;5026161;28;19976;-71
2021/04/04 10:17:08;;;;;;;;;;;17.80;52.30;;;;;;5024972;28;19971;-71
2021/04/04 10:19:35;;;;;;;;;;;17.80;52.30;;;;;;5026070;28;19921;-71
2021/04/04 10:22:00;;;;;;;;;;;17.90;52.00;;;;;;5016658;28;19925;-71
2021/04/04 10:24:34;;;;;;;;;;;17.90;51.60;;;;;;5026463;28;19928;-72
2021/04/04 10:27:18;;;;;;;;;;;17.90;51.10;;;;;;5024641;28;19938;-71
2021/04/04 10:29:43;;;;;;;;;;;18.00;50.80;;;;;;5025418;28;20533;-71
2021/04/04 10:32:09;;;;;;;;;;;18.00;50.20;;;;;;5025217;28;19929;-71
2021/04/04 10:34:41;;;;;;;;;;;18.00;50.00;;;;;;5025965;28;19917;-71
2021/04/04 10:37:06;;;;;;;;;;;18.00;49.70;;;;;;5024992;28;19925;-71
2021/04/04 10:39:32;;;;;;;;;;;18.10;49.50;;;;;;5024800;28;19936;-72
2021/04/04 10:41:57;;;;;;;;;;;18.00;49.30;;;;;;5025776;28;19917;-71
2021/04/04 10:44:23;;;;;;;;;;;18.00;49.20;;;;;;5019099;28;19928;-72
2021/04/04 10:46:49;;;;;;;;;;;18.00;49.50;;;;;;5025351;28;20020;-69
2021/04/04 10:49:14;;;;;;;;;;;18.00;50.00;;;;;;5008422;28;19924;-71
2021/04/04 10:51:39;;;;;;;;;;;17.90;50.40;;;;;;5026655;28;19929;-71
2021/04/04 10:54:05;;;;;;;;;;;18.00;50.80;;;;;;5024634;28;19925;-71
2021/04/04 10:56:30;;;;;;;;;;;18.00;51.30;;;;;;5025340;28;19972;-70
2021/04/04 10:58:56;;;;;;;;;;;18.00;51.90;;;;;;5012265;28;19923;-75
2021/04/04 11:01:21;;;;;;;;;;;18.00;52.90;;;;;;5012557;28;20039;-73
2021/04/04 11:03:47;;;;;;;;;;;18.00;53.40;;;;;;5019363;28;20406;-71
2021/04/04 11:06:12;;;;;;;;;;;18.00;55.20;;;;;;5013903;28;20615;-74
2021/04/04 11:08:41;;;;;;;;;;;18.00;56.30;;;;;;5023538;28;19917;-69
2021/04/04 11:11:07;;;;;;;;;;;18.00;57.20;;;;;;5024821;28;19918;-70
2021/04/04 11:13:32;;;;;;;;;;;18.00;57.20;;;;;;5017923;28;19923;-70
2021/04/04 11:15:58;;;;;;;;;;;18.00;57.10;;;;;;5025827;28;19970;-71
2021/04/04 11:18:28;;;;;;;;;;;18.10;56.80;;;;;;5027034;28;20383;-70
2021/04/04 11:20:54;;;;;;;;;;;18.10;55.90;;;;;;5021053;28;19921;-71
2021/04/04 11:23:20;;;;;;;;;;;18.10;55.30;;;;;;5019749;28;20294;-71
2021/04/04 11:25:45;;;;;;;;;;;18.10;55.60;;;;;;5025176;28;19925;-70
2021/04/04 11:28:17;;;;;;;;;;;18.10;54.70;;;;;;5022344;28;19922;-69
2021/04/04 11:30:43;;;;;;;;;;;18.10;54.40;;;;;;5024632;28;19917;-70
2021/04/04 11:33:17;;;;;;;;;;;18.10;54.00;;;;;;5023624;28;19921;-70
2021/04/04 11:35:59;;;;;;;;;;;18.10;53.80;;;;;;5024547;28;19917;-70
2021/04/04 11:38:24;;;;;;;;;;;18.10;53.60;;;;;;5023860;28;19948;-71
2021/04/04 11:41:08;;;;;;;;;;;18.10;53.30;;;;;;5024395;28;19917;-70
2021/04/04 11:43:34;;;;;;;;;;;18.10;53.40;;;;;;5016658;28;20521;-71
2021/04/04 11:45:59;;;;;;;;;;;18.10;53.20;;;;;;5024013;28;19917;-71
2021/04/04 11:48:28;;;;;;;;;;;18.10;52.70;;;;;;5024130;28;19928;-68
2021/04/04 11:50:54;;;;;;;;;;;18.20;52.10;;;;;;5016925;28;20008;-70
2021/04/04 11:53:59;;;;;;;;;;;18.20;51.60;;;;;;5023918;28;20365;-70
2021/04/04 11:56:40;;;;;;;;;;;18.20;51.20;;;;;;4939235;29;19927;-70
2021/04/04 11:59:05;;;;;;;;;;;18.20;50.80;;;;;;4946181;29;19934;-70
2021/04/04 12:01:31;;;;;;;;;;;18.20;50.40;;;;;;4998341;28;20274;-69
2021/04/04 12:03:56;;;;;;;;;;;18.10;49.80;;;;;;5027438;28;19917;-71
2021/04/04 12:06:22;;;;;;;;;;;18.20;49.30;;;;;;5026416;28;19924;-70
2021/04/04 12:08:48;;;;;;;;;;;18.20;49.00;;;;;;5020456;28;20416;-69
2021/04/04 12:11:14;;;;;;;;;;;18.20;49.00;;;;;;5018016;28;20705;-72
2021/04/04 12:13:39;;;;;;;;;;;18.10;48.70;;;;;;5022802;28;19976;-71
2021/04/04 12:16:05;;;;;;;;;;;18.10;48.50;;;;;;5025180;28;20520;-71
2021/04/04 12:18:30;;;;;;;;;;;18.20;48.40;;;;;;5026561;28;20012;-70
2021/04/04 12:20:59;;;;;;;;;;;18.20;48.20;;;;;;5028283;28;19917;-70
2021/04/04 12:23:24;;;;;;;;;;;18.20;48.00;;;;;;5024990;28;20443;-69
2021/04/04 12:25:50;;;;;;;;;;;18.20;47.90;;;;;;5026399;28;19924;-71
2021/04/04 12:28:16;;;;;;;;;;;18.20;48.30;;;;;;5027489;28;20318;-69
2021/04/04 12:30:42;;;;;;;;;;;18.20;47.20;;;;;;5021068;28;20052;-69
2021/04/04 12:33:11;;;;;;;;;;;18.20;47.60;;;;;;5028218;28;20417;-69
2021/04/04 12:35:37;;;;;;;;;;;18.20;47.10;;;;;;5026555;28;19988;-68
2021/04/04 12:38:03;;;;;;;;;;;18.30;46.00;;;;;;5022083;28;19959;-68
2021/04/04 12:40:28;;;;;;;;;;;18.30;45.10;;;;;;5023913;28;20386;-69
2021/04/04 12:42:55;;;;;;;;;;;18.30;44.80;;;;;;5024394;28;19928;-67
2021/04/04 12:45:20;;;;;;;;;;;18.30;44.90;;;;;;5006169;28;19917;-67
2021/04/04 12:47:46;;;;;;;;;;;18.30;44.60;;;;;;5024157;28;21363;-68
2021/04/04 12:50:14;;;;;;;;;;;18.30;43.90;;;;;;5023040;28;19928;-69
2021/04/04 12:52:44;;;;;;;;;;;18.30;43.30;;;;;;5013250;28;20284;-68
2021/04/04 12:55:09;;;;;;;;;;;18.30;43.40;;;;;;5023132;28;19925;-68
2021/04/04 12:57:35;;;;;;;;;;;18.30;43.50;;;;;;5023424;28;19924;-69
2021/04/04 13:00:00;;;;;;;;;;;18.20;43.40;;;;;;5021619;28;19917;-67
2021/04/04 13:02:26;;;;;;;;;;;18.20;43.50;;;;;;5020060;28;19917;-67
2021/04/04 13:04:55;;;;;;;;;;;18.20;43.50;;;;;;5021311;28;19995;-69
2021/04/04 13:07:21;;;;;;;;;;;18.20;43.50;;;;;;5024122;28;20675;-69
2021/04/04 13:09:46;;;;;;;;;;;18.20;43.70;;;;;;5024172;28;19968;-70
2021/04/04 13:12:12;;;;;;;;;;;18.20;43.50;;;;;;5028419;28;20337;-69
2021/04/04 13:14:37;;;;;;;;;;;18.20;43.40;;;;;;5026809;28;19983;-69
2021/04/04 13:17:03;;;;;;;;;;;18.30;43.50;;;;;;5027493;28;20467;-69
2021/04/04 13:19:31;;;;;;;;;;;18.20;43.20;;;;;;5027010;28;19917;-69
2021/04/04 13:21:57;;;;;;;;;;;18.20;43.20;;;;;;5013952;28;19994;-67
2021/04/04 13:24:23;;;;;;;;;;;18.20;43.10;;;;;;5024520;28;20516;-66
2021/04/04 13:26:49;;;;;;;;;;;18.20;42.90;;;;;;5019270;28;19975;-69
2021/04/04 13:29:18;;;;;;;;;;;18.20;42.90;;;;;;5014229;28;19961;-68
2021/04/04 13:31:50;;;;;;;;;;;18.20;42.90;;;;;;5025643;28;19925;-70
2021/04/04 13:34:16;;;;;;;;;;;18.20;42.60;;;;;;5027099;28;19921;-67
2021/04/04 13:36:44;;;;;;;;;;;18.20;42.60;;;;;;5026866;28;19957;-69
2021/04/04 13:39:10;;;;;;;;;;;18.30;42.50;;;;;;5027159;28;19968;-69
2021/04/04 13:41:35;;;;;;;;;;;18.20;42.50;;;;;;5015724;28;19921;-68
2021/04/04 13:44:06;;;;;;;;;;;18.30;42.50;;;;;;5014107;28;19918;-68
2021/04/04 13:46:47;;;;;;;;;;;18.20;42.30;;;;;;5024407;28;20702;-68
2021/04/04 13:49:13;;;;;;;;;;;18.20;42.20;;;;;;5020948;28;19924;-69
2021/04/04 13:51:39;;;;;;;;;;;18.30;42.30;;;;;;5027273;28;19921;-67
2021/04/04 13:54:05;;;;;;;;;;;18.20;42.30;;;;;;5027577;28;20374;-72
2021/04/04 13:56:39;;;;;;;;;;;18.30;42.50;;;;;;5027449;28;20000;-74
2021/04/04 13:59:15;;;;;;;;;;;18.30;42.80;;;;;;5028389;28;19921;-76
2021/04/04 14:01:41;;;;;;;;;;;18.20;43.20;;;;;;5027297;28;19970;-72
2021/04/04 14:04:07;;;;;;;;;;;18.30;43.20;;;;;;5025869;28;19922;-70
2021/04/04 14:06:33;;;;;;;;;;;18.20;43.20;;;;;;5023002;28;20607;-70
2021/04/04 14:08:59;;;;;;;;;;;18.20;43.10;;;;;;5026404;28;19918;-70
2021/04/04 14:11:24;;;;;;;;;;;18.20;43.10;;;;;;5012302;28;19924;-71
2021/04/04 14:13:49;;;;;;;;;;;18.30;43.10;;;;;;5031704;28;19919;-71
2021/04/04 14:16:15;;;;;;;;;;;18.30;43.20;;;;;;5026634;28;19917;-72
2021/04/04 14:18:40;;;;;;;;;;;18.20;43.90;;;;;;5029025;28;20399;-69
2021/04/04 14:21:06;;;;;;;;;;;18.20;43.60;;;;;;5029965;28;19943;-71
2021/04/04 14:23:32;;;;;;;;;;;18.20;43.70;;;;;;5027533;28;19971;-71